Time,TemperatureF,DewpointF,PressureIn,WindDirection,WindDirectionDegrees,WindSpeedMPH,WindSpeedGustMPH,Humidity,HourlyPrecipIn,Conditions,Clouds,dailyrainin,SoftwareType,DateUTC
2013-01-22 00:00:00,-2.3,-5.4,29.99,West,271,0.0,0.0,86,0.00,,,0.00,LWC V2.00 B2112,2013-01-22 09:00:00,
2013-01-22 00:05:00,-2.6,-5.7,29.99,West,272,0.0,0.0,86,0.00,,,0.00,LWC V2.00 B2112,2013-01-22 09:05:00,
2013-01-22 00:10:00,-2.5,-5.4,29.99,West,272,0.0,0.0,87,0.00,,,0.00,LWC V2.00 B2112,2013-01-22 09:10:00,
2013-01-22 00:15:00,-2.5,-5.6,29.99,West,272,0.0,0.0,86,0.00,,,0.00,LWC V2.00 B2112,2013-01-22 09:15:00,
2013-01-22 00:20:00,-2.7,-5.8,29.99,West,272,0.0,0.0,86,0.00,,,0.00,LWC V2.00 B2112,2013-01-22 09:20:00,
2013-01-22 00:25:00,-2.7,-5.6,29.99,West,272,0.0,0.0,87,0.00,,,0.00,LWC V2.00 B2112,2013-01-22 09:25:00,
2013-01-22 00:30:00,-2.2,-4.9,29.99,West,272,0.0,0.0,88,0.00,,,0.00,LWC V2.00 B2112,2013-01-22 09:30:00,
2013-01-22 00:35:00,-2.1,-5.0,29.99,West,271,0.0,0.0,87,0.00,,,0.00,LWC V2.00 B2112,2013-01-22 09:35:00,
2013-01-22 00:40:00,-2.4,-5.5,29.99,West,271,0.0,0.0,86,0.00,,,0.00,LWC V2.00 B2112,2013-01-22 09:40:00,
2013-01-22 00:45:00,-2.3,-5.2,29.99,West,272,0.0,0.0,87,0.00,,,0.00,LWC V2.00 B2112,2013-01-22 09:45:00,
2013-01-22 00:50:00,-2.5,-5.6,29.99,West,272,0.0,0.0,86,0.00,,,0.00,LWC V2.00 B2112,2013-01-22 09:50:00,
2013-01-22 00:55:00,-2.9,-6.3,29.99,West,272,0.0,0.0,85,0.00,,,0.00,LWC V2.00 B2112,2013-01-22 09:55:00,
2013-01-22 01:00:00,-3.2,-6.3,29.98,West,272,0.0,0.0,86,0.00,,,0.00,LWC V2.00 B2112,2013-01-22 10:00:00,
2013-01-22 01:05:00,-3.2,-6.3,29.98,West,272,0.0,0.0,86,0.00,,,0.00,LWC V2.00 B2112,2013-01-22 10:05:00,
2013-01-22 01:10:00,-3.0,-5.9,29.98,West,272,0.0,0.0,87,0.00,,,0.00,LWC V2.00 B2112,2013-01-22 10:10:00,
2013-01-22 01:15:00,-2.7,-5.6,29.98,West,271,0.0,0.0,87,0.00,,,0.00,LWC V2.00 B2112,2013-01-22 10:15:00,
2013-01-22 01:20:00,-2.7,-5.6,29.98,West,272,0.0,0.0,87,0.00,,,0.00,LWC V2.00 B2112,2013-01-22 10:20:00,
2013-01-22 01:25:00,-2.7,-5.8,29.98,West,272,0.0,0.0,86,0.00,,,0.00,LWC V2.00 B2112,2013-01-22 10:25:00,
2013-01-22 01:30:00,-2.9,-6.0,29.98,West,272,0.0,0.0,86,0.00,,,0.00,LWC V2.00 B2112,2013-01-22 10:30:00,
2013-01-22 01:35:00,-2.8,-5.9,29.97,West,272,0.0,0.0,86,0.00,,,0.00,LWC V2.00 B2112,2013-01-22 10:35:00,
2013-01-22 01:40:00,-2.9,-6.0,29.97,West,272,0.0,0.0,86,0.00,,,0.00,LWC V2.00 B2112,2013-01-22 10:40:00,
2013-01-22 01:45:00,-2.7,-5.8,29.97,West,272,0.0,0.0,86,0.00,,,0.00,LWC V2.00 B2112,2013-01-22 10:45:00,
2013-01-22 01:50:00,-2.7,-5.8,29.97,West,272,0.0,0.0,86,0.00,,,0.00,LWC V2.00 B2112,2013-01-22 10:50:00,
2013-01-22 01:55:00,-2.5,-5.4,29.97,West,281,0.0,0.0,87,0.00,,,0.00,LWC V2.00 B2112,2013-01-22 10:55:00,
2013-01-22 02:00:00,-2.5,-5.6,29.97,West,281,0.0,0.0,86,0.00,,,0.00,LWC V2.00 B2112,2013-01-22 11:00:00,
2013-01-22 02:05:00,-2.7,-5.8,29.97,West,281,0.0,0.0,86,0.00,,,0.00,LWC V2.00 B2112,2013-01-22 11:05:00,
2013-01-22 02:10:00,-2.7,-5.8,29.96,West,281,0.0,0.0,86,0.00,,,0.00,LWC V2.00 B2112,2013-01-22 11:10:00,
2013-01-22 02:15:00,-2.8,-5.9,29.96,West,281,0.0,0.0,86,0.00,,,0.00,LWC V2.00 B2112,2013-01-22 11:15:00,
2013-01-22 02:20:00,-2.8,-5.9,29.96,West,281,0.0,0.0,86,0.00,,,0.00,LWC V2.00 B2112,2013-01-22 11:20:00,
2013-01-22 02:25:00,-2.1,-5.0,29.95,West,281,0.0,0.0,87,0.00,,,0.00,LWC V2.00 B2112,2013-01-22 11:25:00,
2013-01-22 02:30:00,-2.1,-5.2,29.95,WNW,283,0.0,0.0,86,0.00,,,0.00,LWC V2.00 B2112,2013-01-22 11:30:00,
2013-01-22 02:35:00,-1.8,-4.7,29.95,WNW,283,0.0,0.0,87,0.00,,,0.00,LWC V2.00 B2112,2013-01-22 11:35:00,
2013-01-22 02:40:00,-1.8,-4.9,29.95,WNW,283,0.0,0.0,86,0.00,,,0.00,LWC V2.00 B2112,2013-01-22 11:40:00,
2013-01-22 02:45:00,-1.8,-4.9,29.95,WNW,283,0.0,0.0,86,0.00,,,0.00,LWC V2.00 B2112,2013-01-22 11:45:00,
2013-01-22 02:50:00,-1.7,-4.8,29.94,WNW,283,0.0,0.0,86,0.00,,,0.00,LWC V2.00 B2112,2013-01-22 11:50:00,
2013-01-22 02:55:00,-1.6,-4.7,29.94,West,281,0.0,0.0,86,0.00,,,0.00,LWC V2.00 B2112,2013-01-22 11:55:00,
2013-01-22 03:00:00,-1.4,-4.5,29.94,West,281,0.0,0.0,86,0.00,,,0.00,LWC V2.00 B2112,2013-01-22 12:00:00,
2013-01-22 03:05:00,-1.2,-4.1,29.94,WNW,297,0.0,0.0,87,0.00,,,0.00,LWC V2.00 B2112,2013-01-22 12:05:00,
2013-01-22 03:10:00,-0.6,-3.5,29.94,WNW,298,0.0,0.0,87,0.00,,,0.00,LWC V2.00 B2112,2013-01-22 12:10:00,
2013-01-22 03:15:00,0.2,-2.5,29.94,NNW,333,0.0,0.0,88,0.00,,,0.00,LWC V2.00 B2112,2013-01-22 12:15:00,
2013-01-22 03:20:00,0.2,-3.2,29.94,NW,321,0.0,0.0,85,0.00,,,0.00,LWC V2.00 B2112,2013-01-22 12:20:00,
2013-01-22 03:25:00,0.0,-3.2,29.94,NW,321,0.0,0.0,86,0.00,,,0.00,LWC V2.00 B2112,2013-01-22 12:25:00,
2013-01-22 03:30:00,-0.3,-3.7,29.94,NW,304,0.0,0.0,85,0.00,,,0.00,LWC V2.00 B2112,2013-01-22 12:30:00,
2013-01-22 03:35:00,-0.3,-3.7,29.94,NW,304,0.0,0.0,85,0.00,,,0.00,LWC V2.00 B2112,2013-01-22 12:35:00,
2013-01-22 03:40:00,-0.5,-3.9,29.94,NW,304,0.0,0.0,85,0.00,,,0.00,LWC V2.00 B2112,2013-01-22 12:40:00,
2013-01-22 03:45:00,-0.5,-3.7,29.94,NW,304,0.0,0.0,86,0.00,,,0.00,LWC V2.00 B2112,2013-01-22 12:45:00,
2013-01-22 03:50:00,-0.4,-3.6,29.94,NW,304,0.0,0.0,86,0.00,,,0.00,LWC V2.00 B2112,2013-01-22 12:50:00,
2013-01-22 03:55:00,-0.1,-3.3,29.94,WNW,298,0.0,0.0,86,0.00,,,0.00,LWC V2.00 B2112,2013-01-22 12:55:00,
2013-01-22 04:00:00,0.1,-2.8,29.93,WNW,299,0.0,0.0,87,0.00,,,0.00,LWC V2.00 B2112,2013-01-22 13:00:00,
2013-01-22 04:05:00,0.1,-3.1,29.93,WNW,299,0.0,0.0,86,0.00,,,0.00,LWC V2.00 B2112,2013-01-22 13:05:00,
2013-01-22 04:10:00,0.2,-2.7,29.93,WNW,299,0.0,0.0,87,0.00,,,0.00,LWC V2.00 B2112,2013-01-22 13:10:00,
2013-01-22 04:15:00,0.4,-2.8,29.93,WNW,299,0.0,0.0,86,0.00,,,0.00,LWC V2.00 B2112,2013-01-22 13:15:00,
2013-01-22 04:20:00,0.4,-2.8,29.93,WNW,300,0.0,0.0,86,0.00,,,0.00,LWC V2.00 B2112,2013-01-22 13:20:00,
2013-01-22 04:25:00,0.3,-2.9,29.93,WNW,300,0.0,0.0,86,0.00,,,0.00,LWC V2.00 B2112,2013-01-22 13:25:00,
2013-01-22 04:30:00,0.3,-2.9,29.93,WNW,300,0.0,0.0,86,0.00,,,0.00,LWC V2.00 B2112,2013-01-22 13:30:00,
2013-01-22 04:35:00,0.4,-2.5,29.93,WNW,300,0.0,0.0,87,0.00,,,0.00,LWC V2.00 B2112,2013-01-22 13:35:00,
2013-01-22 04:40:00,0.5,-2.7,29.93,WNW,300,0.0,0.0,86,0.00,,,0.00,LWC V2.00 B2112,2013-01-22 13:40:00,
2013-01-22 04:45:00,0.3,-2.9,29.93,WNW,300,0.0,0.0,86,0.00,,,0.00,LWC V2.00 B2112,2013-01-22 13:45:00,
2013-01-22 04:50:00,0.4,-2.5,29.92,WNW,300,0.0,0.0,87,0.00,,,0.00,LWC V2.00 B2112,2013-01-22 13:50:00,
2013-01-22 04:55:00,0.9,-2.0,29.92,WNW,302,0.0,0.0,87,0.00,,,0.00,LWC V2.00 B2112,2013-01-22 13:55:00,
2013-01-22 05:00:00,0.8,-2.4,29.92,WNW,300,0.0,0.0,86,0.00,,,0.00,LWC V2.00 B2112,2013-01-22 14:00:00,
2013-01-22 05:05:00,0.7,-2.5,29.92,WNW,300,0.0,0.0,86,0.00,,,0.00,LWC V2.00 B2112,2013-01-22 14:05:00,
2013-01-22 05:10:00,0.7,-2.5,29.92,WNW,301,0.0,0.0,86,0.00,,,0.00,LWC V2.00 B2112,2013-01-22 14:10:00,
2013-01-22 05:15:00,0.7,-2.5,29.92,WNW,302,0.0,0.0,86,0.00,,,0.00,LWC V2.00 B2112,2013-01-22 14:15:00,
2013-01-22 05:20:00,0.6,-2.6,29.92,WNW,302,0.0,0.0,86,0.00,,,0.00,LWC V2.00 B2112,2013-01-22 14:20:00,
2013-01-22 05:25:00,0.6,-2.6,29.92,WNW,302,0.0,0.0,86,0.00,,,0.00,LWC V2.00 B2112,2013-01-22 14:25:00,
2013-01-22 05:30:00,0.5,-2.7,29.92,WNW,300,0.0,0.0,86,0.00,,,0.00,LWC V2.00 B2112,2013-01-22 14:30:00,
2013-01-22 05:35:00,0.7,-2.2,29.92,WNW,301,0.0,0.0,87,0.00,,,0.00,LWC V2.00 B2112,2013-01-22 14:35:00,
2013-01-22 05:40:00,0.8,-2.1,29.92,WNW,302,0.0,0.0,87,0.00,,,0.00,LWC V2.00 B2112,2013-01-22 14:40:00,
2013-01-22 05:45:00,0.6,-2.6,29.92,WNW,302,0.0,0.0,86,0.00,,,0.00,LWC V2.00 B2112,2013-01-22 14:45:00,
2013-01-22 05:50:00,0.7,-2.2,29.91,WNW,302,0.0,0.0,87,0.00,,,0.00,LWC V2.00 B2112,2013-01-22 14:50:00,
2013-01-22 05:55:00,0.7,-2.5,29.91,WNW,302,0.0,0.0,86,0.00,,,0.00,LWC V2.00 B2112,2013-01-22 14:55:00,
2013-01-22 06:00:00,0.7,-2.5,29.92,WNW,302,0.0,0.0,86,0.00,,,0.00,LWC V2.00 B2112,2013-01-22 15:00:00,
2013-01-22 06:05:00,0.8,-2.4,29.91,WNW,302,0.0,0.0,86,0.00,,,0.00,LWC V2.00 B2112,2013-01-22 15:05:00,
2013-01-22 06:10:00,0.8,-2.1,29.91,WNW,301,0.0,0.0,87,0.00,,,0.00,LWC V2.00 B2112,2013-01-22 15:10:00,
2013-01-22 06:15:00,0.7,-2.5,29.91,WNW,302,0.0,0.0,86,0.00,,,0.00,LWC V2.00 B2112,2013-01-22 15:15:00,
2013-01-22 06:20:00,0.5,-2.4,29.91,WNW,301,0.0,0.0,87,0.00,,,0.00,LWC V2.00 B2112,2013-01-22 15:20:00,
2013-01-22 06:25:00,0.2,-3.0,29.91,WNW,302,0.0,0.0,86,0.00,,,0.00,LWC V2.00 B2112,2013-01-22 15:25:00,
2013-01-22 06:30:00,0.0,-3.2,29.91,WNW,301,0.0,0.0,86,0.00,,,0.00,LWC V2.00 B2112,2013-01-22 15:30:00,
2013-01-22 06:35:00,-0.1,-3.3,29.91,WNW,302,0.0,0.0,86,0.00,,,0.00,LWC V2.00 B2112,2013-01-22 15:35:00,
2013-01-22 06:40:00,-0.2,-3.1,29.91,WNW,302,0.0,0.0,87,0.00,,,0.00,LWC V2.00 B2112,2013-01-22 15:40:00,
2013-01-22 06:45:00,0.2,-2.5,29.91,WNW,302,0.0,0.0,88,0.00,,,0.00,LWC V2.00 B2112,2013-01-22 15:45:00,
2013-01-22 06:50:00,0.0,-3.2,29.90,WNW,302,0.0,0.0,86,0.00,,,0.00,LWC V2.00 B2112,2013-01-22 15:50:00,
2013-01-22 06:55:00,-0.1,-3.3,29.90,WNW,302,0.0,0.0,86,0.00,,,0.00,LWC V2.00 B2112,2013-01-22 15:55:00,
2013-01-22 07:00:00,-0.2,-3.4,29.90,WNW,301,0.0,0.0,86,0.00,,,0.00,LWC V2.00 B2112,2013-01-22 16:00:00,
2013-01-22 07:05:00,-0.2,-3.4,29.90,WNW,302,0.0,0.0,86,0.00,,,0.00,LWC V2.00 B2112,2013-01-22 16:05:00,
2013-01-22 07:10:00,-0.5,-3.7,29.90,WNW,301,0.0,0.0,86,0.00,,,0.00,LWC V2.00 B2112,2013-01-22 16:10:00,
2013-01-22 07:15:00,-0.5,-3.7,29.90,WNW,302,0.0,0.0,86,0.00,,,0.00,LWC V2.00 B2112,2013-01-22 16:15:00,
2013-01-22 07:20:00,-0.4,-3.3,29.90,West,261,0.0,0.0,87,0.00,,,0.00,LWC V2.00 B2112,2013-01-22 16:20:00,
2013-01-22 07:25:00,0.0,-2.9,29.89,West,266,0.0,0.0,87,0.00,,,0.00,LWC V2.00 B2112,2013-01-22 16:25:00,
2013-01-22 07:30:00,0.1,-3.1,29.89,West,273,0.0,0.0,86,0.00,,,0.00,LWC V2.00 B2112,2013-01-22 16:30:00,
2013-01-22 07:35:00,0.3,-2.9,29.89,West,273,0.0,0.0,86,0.00,,,0.00,LWC V2.00 B2112,2013-01-22 16:35:00,
2013-01-22 07:40:00,0.3,-2.9,29.89,WNW,283,0.0,0.0,86,0.00,,,0.00,LWC V2.00 B2112,2013-01-22 16:40:00,
2013-01-22 07:45:00,0.3,-2.9,29.89,West,261,0.0,0.0,86,0.00,,,0.00,LWC V2.00 B2112,2013-01-22 16:45:00,
2013-01-22 07:50:00,0.1,-3.3,29.89,West,264,0.0,0.0,85,0.00,,,0.00,LWC V2.00 B2112,2013-01-22 16:50:00,
2013-01-22 07:55:00,0.3,-2.9,29.89,West,275,0.0,0.0,86,0.00,,,0.00,LWC V2.00 B2112,2013-01-22 16:55:00,
2013-01-22 08:00:00,0.2,-3.2,29.89,WNW,283,0.0,0.0,85,0.00,,,0.00,LWC V2.00 B2112,2013-01-22 17:00:00,
2013-01-22 08:05:00,0.3,-3.1,29.89,WNW,283,0.0,0.0,85,0.00,,,0.00,LWC V2.00 B2112,2013-01-22 17:05:00,
2013-01-22 08:10:00,0.4,-3.0,29.89,WNW,282,0.0,0.0,85,0.00,,,0.00,LWC V2.00 B2112,2013-01-22 17:10:00,
2013-01-22 08:15:00,0.6,-2.6,29.89,WNW,283,0.0,0.0,86,0.00,,,0.00,LWC V2.00 B2112,2013-01-22 17:15:00,
2013-01-22 08:20:00,0.6,-2.8,29.88,WNW,284,0.0,0.0,85,0.00,,,0.00,LWC V2.00 B2112,2013-01-22 17:20:00,
2013-01-22 08:25:00,0.7,-2.7,29.88,WNW,284,0.0,0.0,85,0.00,,,0.00,LWC V2.00 B2112,2013-01-22 17:25:00,
2013-01-22 08:30:00,0.6,-2.8,29.88,WSW,247,0.0,0.0,85,0.00,,,0.00,LWC V2.00 B2112,2013-01-22 17:30:00,
2013-01-22 08:35:00,0.7,-3.0,29.88,WSW,248,0.0,0.0,84,0.00,,,0.00,LWC V2.00 B2112,2013-01-22 17:35:00,
2013-01-22 08:40:00,0.6,-2.8,29.89,WNW,291,0.0,0.0,85,0.00,,,0.00,LWC V2.00 B2112,2013-01-22 17:40:00,
2013-01-22 08:45:00,0.7,-2.7,29.88,WNW,282,0.0,0.0,85,0.00,,,0.00,LWC V2.00 B2112,2013-01-22 17:45:00,
2013-01-22 08:50:00,0.5,-3.2,29.88,WNW,283,0.0,0.0,84,0.00,,,0.00,LWC V2.00 B2112,2013-01-22 17:50:00,
2013-01-22 08:55:00,0.7,-2.7,29.88,WNW,286,0.0,0.0,85,0.00,,,0.00,LWC V2.00 B2112,2013-01-22 17:55:00,
2013-01-22 09:00:00,0.8,-2.6,29.88,WNW,286,0.0,0.0,85,0.00,,,0.00,LWC V2.00 B2112,2013-01-22 18:00:00,
2013-01-22 09:05:00,0.8,-2.6,29.88,WNW,286,0.0,0.0,85,0.00,,,0.00,LWC V2.00 B2112,2013-01-22 18:05:00,
2013-01-22 09:10:00,0.6,-3.1,29.88,WNW,287,0.0,0.0,84,0.00,,,0.00,LWC V2.00 B2112,2013-01-22 18:10:00,
2013-01-22 09:15:00,0.5,-2.9,29.88,WNW,294,0.0,0.0,85,0.00,,,0.00,LWC V2.00 B2112,2013-01-22 18:15:00,
2013-01-22 09:20:00,0.4,-3.0,29.88,WNW,294,0.0,0.0,85,0.00,,,0.00,LWC V2.00 B2112,2013-01-22 18:20:00,
2013-01-22 09:25:00,0.5,-2.9,29.88,NW,309,0.0,0.0,85,0.00,,,0.00,LWC V2.00 B2112,2013-01-22 18:25:00,
2013-01-22 09:30:00,0.8,-2.4,29.87,WNW,298,0.0,0.0,86,0.00,,,0.00,LWC V2.00 B2112,2013-01-22 18:30:00,
2013-01-22 09:35:00,0.8,-2.6,29.87,WNW,298,0.0,0.0,85,0.00,,,0.00,LWC V2.00 B2112,2013-01-22 18:35:00,
2013-01-22 09:40:00,0.7,-2.7,29.87,WNW,298,0.0,0.0,85,0.00,,,0.00,LWC V2.00 B2112,2013-01-22 18:40:00,
2013-01-22 09:45:00,0.7,-2.7,29.87,WNW,298,0.0,0.0,85,0.00,,,0.00,LWC V2.00 B2112,2013-01-22 18:45:00,
2013-01-22 09:50:00,0.5,-2.9,29.87,WNW,299,0.0,0.0,85,0.00,,,0.00,LWC V2.00 B2112,2013-01-22 18:50:00,
2013-01-22 09:55:00,0.8,-2.4,29.87,WNW,286,0.0,0.0,86,0.00,,,0.00,LWC V2.00 B2112,2013-01-22 18:55:00,
2013-01-22 10:00:00,1.0,-2.2,29.87,WNW,292,0.0,0.0,86,0.00,,,0.00,LWC V2.00 B2112,2013-01-22 19:00:00,
2013-01-22 10:05:00,1.0,-2.4,29.87,WNW,292,0.0,0.0,85,0.00,,,0.00,LWC V2.00 B2112,2013-01-22 19:05:00,
2013-01-22 10:10:00,1.0,-2.2,29.87,WNW,292,0.0,0.0,86,0.00,,,0.00,LWC V2.00 B2112,2013-01-22 19:10:00,
2013-01-22 10:15:00,1.0,-2.2,29.87,West,275,0.0,0.0,86,0.00,,,0.00,LWC V2.00 B2112,2013-01-22 19:15:00,
2013-01-22 10:20:00,1.4,-1.8,29.87,NW,309,0.0,0.0,86,0.00,,,0.00,LWC V2.00 B2112,2013-01-22 19:20:00,
2013-01-22 10:25:00,1.1,-2.3,29.87,NW,308,0.0,0.0,85,0.00,,,0.00,LWC V2.00 B2112,2013-01-22 19:25:00,
2013-01-22 10:30:00,0.7,-3.0,29.87,NW,308,0.0,0.0,84,0.00,,,0.00,LWC V2.00 B2112,2013-01-22 19:30:00,
2013-01-22 10:35:00,0.6,-2.8,29.86,NW,309,0.0,0.0,85,0.00,,,0.00,LWC V2.00 B2112,2013-01-22 19:35:00,
2013-01-22 10:40:00,0.9,-2.3,29.86,WNW,303,0.0,0.0,86,0.00,,,0.00,LWC V2.00 B2112,2013-01-22 19:40:00,
2013-01-22 10:45:00,1.4,-1.8,29.86,WNW,303,0.0,0.0,86,0.00,,,0.00,LWC V2.00 B2112,2013-01-22 19:45:00,
2013-01-22 10:50:00,1.4,-2.0,29.86,WNW,303,0.0,0.0,85,0.00,,,0.00,LWC V2.00 B2112,2013-01-22 19:50:00,
2013-01-22 10:55:00,1.2,-2.2,29.85,WNW,303,0.0,0.0,85,0.00,,,0.00,LWC V2.00 B2112,2013-01-22 19:55:00,
2013-01-22 11:00:00,1.2,-2.2,29.85,WNW,303,0.0,0.0,85,0.00,,,0.00,LWC V2.00 B2112,2013-01-22 20:00:00,
2013-01-22 11:05:00,1.5,-1.7,29.85,WNW,303,0.0,0.0,86,0.00,,,0.00,LWC V2.00 B2112,2013-01-22 20:05:00,
2013-01-22 11:10:00,1.6,-1.8,29.85,WNW,303,0.0,0.0,85,0.00,,,0.00,LWC V2.00 B2112,2013-01-22 20:10:00,
2013-01-22 11:15:00,1.5,-1.9,29.84,WNW,303,0.0,0.0,85,0.00,,,0.00,LWC V2.00 B2112,2013-01-22 20:15:00,
2013-01-22 11:20:00,1.8,-1.4,29.84,WNW,303,0.0,0.0,86,0.00,,,0.00,LWC V2.00 B2112,2013-01-22 20:20:00,
2013-01-22 11:25:00,2.1,-1.1,29.84,WNW,303,0.0,0.0,86,0.00,,,0.00,LWC V2.00 B2112,2013-01-22 20:25:00,
2013-01-22 11:30:00,2.1,-1.4,29.84,WNW,303,0.0,0.0,85,0.00,,,0.00,LWC V2.00 B2112,2013-01-22 20:30:00,
2013-01-22 11:35:00,2.0,-1.5,29.84,WNW,303,0.0,0.0,85,0.00,,,0.00,LWC V2.00 B2112,2013-01-22 20:35:00,
2013-01-22 11:40:00,2.1,-1.4,29.84,West,280,0.0,0.0,85,0.00,,,0.00,LWC V2.00 B2112,2013-01-22 20:40:00,
2013-01-22 11:45:00,2.2,-1.3,29.84,WNW,294,0.0,0.0,85,0.00,,,0.00,LWC V2.00 B2112,2013-01-22 20:45:00,
2013-01-22 11:49:00,2.6,-0.9,29.84,WNW,295,0.0,0.0,85,0.00,,,0.00,LWC V2.00 B2112,2013-01-22 20:49:00,
2013-01-22 11:55:00,2.8,-0.9,29.84,WNW,295,0.0,0.0,84,0.00,,,0.00,LWC V2.00 B2112,2013-01-22 20:55:00,
2013-01-22 12:00:00,2.9,-0.8,29.84,WNW,295,0.0,0.0,84,0.00,,,0.00,LWC V2.00 B2112,2013-01-22 21:00:00,
2013-01-22 12:04:00,2.9,-0.8,29.84,WNW,286,0.0,0.0,84,0.00,,,0.00,LWC V2.00 B2112,2013-01-22 21:04:00,
2013-01-22 12:10:00,3.0,-0.7,29.84,NNW,340,0.0,0.0,84,0.00,,,0.00,LWC V2.00 B2112,2013-01-22 21:10:00,
2013-01-22 12:15:00,3.2,-0.5,29.84,NW,310,0.0,0.0,84,0.00,,,0.00,LWC V2.00 B2112,2013-01-22 21:15:00,
2013-01-22 12:20:00,3.3,-0.4,29.84,NW,309,0.0,0.0,84,0.00,,,0.00,LWC V2.00 B2112,2013-01-22 21:20:00,
2013-01-22 12:30:00,3.9,0.2,29.83,NW,319,0.0,0.0,84,0.00,,,0.00,LWC V2.00 B2112,2013-01-22 21:30:00,
2013-01-22 12:34:00,3.9,0.2,29.84,NW,317,0.0,0.0,84,0.00,,,0.00,LWC V2.00 B2112,2013-01-22 21:34:00,
2013-01-22 12:39:00,4.2,0.2,29.83,NW,319,0.0,0.0,83,0.00,,,0.00,LWC V2.00 B2112,2013-01-22 21:39:00,
2013-01-22 12:44:00,4.4,0.4,29.83,NW,319,0.0,0.0,83,0.00,,,0.00,LWC V2.00 B2112,2013-01-22 21:44:00,
2013-01-22 12:50:00,4.4,0.4,29.83,NW,318,0.0,0.0,83,0.00,,,0.00,LWC V2.00 B2112,2013-01-22 21:50:00,
2013-01-22 12:54:00,4.5,0.5,29.83,NW,307,0.0,0.0,83,0.00,,,0.00,LWC V2.00 B2112,2013-01-22 21:54:00,
2013-01-22 12:59:00,4.4,0.1,29.83,NW,307,0.0,0.0,82,0.00,,,0.00,LWC V2.00 B2112,2013-01-22 21:59:00,
2013-01-22 13:04:00,4.4,0.4,29.82,NW,307,0.0,0.0,83,0.00,,,0.00,LWC V2.00 B2112,2013-01-22 22:04:00,
2013-01-22 13:10:00,4.6,0.3,29.82,NNW,336,0.0,0.0,82,0.00,,,0.00,LWC V2.00 B2112,2013-01-22 22:10:00,
2013-01-22 13:15:00,4.3,0.0,29.82,NW,318,0.0,0.0,82,0.00,,,0.00,LWC V2.00 B2112,2013-01-22 22:15:00,
2013-01-22 13:19:00,4.2,-0.1,29.82,West,277,0.0,0.0,82,0.00,,,0.00,LWC V2.00 B2112,2013-01-22 22:19:00,
2013-01-22 13:24:00,4.4,0.4,29.82,West,279,0.0,0.0,83,0.00,,,0.00,LWC V2.00 B2112,2013-01-22 22:24:00,
2013-01-22 13:29:00,4.7,0.7,29.82,West,279,0.0,0.0,83,0.00,,,0.00,LWC V2.00 B2112,2013-01-22 22:29:00,
2013-01-22 13:34:00,4.7,0.7,29.82,SE,131,0.0,0.0,83,0.00,,,0.00,LWC V2.00 B2112,2013-01-22 22:34:00,
2013-01-22 13:40:00,4.7,0.7,29.82,WSW,258,0.0,0.0,83,0.00,,,0.00,LWC V2.00 B2112,2013-01-22 22:40:00,
2013-01-22 13:44:00,4.8,0.8,29.82,WNW,286,0.0,0.0,83,0.00,,,0.00,LWC V2.00 B2112,2013-01-22 22:44:00,
2013-01-22 13:49:00,4.8,0.5,29.81,WNW,286,0.0,0.0,82,0.00,,,0.00,LWC V2.00 B2112,2013-01-22 22:49:00,
2013-01-22 13:54:00,4.6,0.3,29.81,WNW,286,0.0,0.0,82,0.00,,,0.00,LWC V2.00 B2112,2013-01-22 22:54:00,
2013-01-22 13:59:00,4.4,0.4,29.81,WNW,286,0.0,0.0,83,0.00,,,0.00,LWC V2.00 B2112,2013-01-22 22:59:00,
2013-01-22 14:04:00,4.4,0.4,29.81,WNW,286,0.0,0.0,83,0.00,,,0.00,LWC V2.00 B2112,2013-01-22 23:04:00,
2013-01-22 14:09:00,4.3,0.0,29.81,WNW,286,0.0,0.0,82,0.00,,,0.00,LWC V2.00 B2112,2013-01-22 23:09:00,
2013-01-22 14:14:00,4.2,0.2,29.81,WNW,286,0.0,0.0,83,0.00,,,0.00,LWC V2.00 B2112,2013-01-22 23:14:00,
2013-01-22 14:19:00,4.4,0.7,29.81,WNW,286,0.0,0.0,84,0.00,,,0.00,LWC V2.00 B2112,2013-01-22 23:19:00,
2013-01-22 14:24:00,4.3,0.3,29.80,WNW,286,0.0,0.0,83,0.00,,,0.00,LWC V2.00 B2112,2013-01-22 23:24:00,
2013-01-22 14:29:00,4.8,1.0,29.80,NW,312,0.0,0.0,84,0.00,,,0.00,LWC V2.00 B2112,2013-01-22 23:29:00,
2013-01-22 14:35:00,5.0,1.0,29.80,NW,313,0.0,0.0,83,0.00,,,0.00,LWC V2.00 B2112,2013-01-22 23:35:00,
2013-01-22 14:45:00,4.8,0.8,29.80,NW,313,0.0,0.0,83,0.00,,,0.00,LWC V2.00 B2112,2013-01-22 23:45:00,
2013-01-22 14:54:00,4.8,0.8,29.80,SW,226,0.0,0.0,83,0.00,,,0.00,LWC V2.00 B2112,2013-01-22 23:54:00,
2013-01-22 14:59:00,4.8,0.8,29.80,West,267,0.0,0.0,83,0.00,,,0.00,LWC V2.00 B2112,2013-01-22 23:59:00,
2013-01-22 15:04:00,4.5,0.5,29.80,West,269,0.0,0.0,83,0.00,,,0.00,LWC V2.00 B2112,2013-01-23 00:04:00,
2013-01-22 15:09:00,4.4,0.4,29.79,WNW,286,0.0,0.0,83,0.00,,,0.00,LWC V2.00 B2112,2013-01-23 00:09:00,
2013-01-22 15:14:00,4.3,0.3,29.79,WNW,286,0.0,0.0,83,0.00,,,0.00,LWC V2.00 B2112,2013-01-23 00:14:00,
2013-01-22 15:19:00,4.1,0.1,29.79,WNW,286,0.0,0.0,83,0.00,,,0.00,LWC V2.00 B2112,2013-01-23 00:19:00,
2013-01-22 15:24:00,3.8,-0.2,29.79,WNW,286,0.0,0.0,83,0.00,,,0.00,LWC V2.00 B2112,2013-01-23 00:24:00,
2013-01-22 15:29:00,3.8,0.1,29.78,WNW,286,0.0,0.0,84,0.00,,,0.00,LWC V2.00 B2112,2013-01-23 00:29:00,
2013-01-22 15:35:00,4.0,0.3,29.78,WNW,286,0.0,0.0,84,0.00,,,0.00,LWC V2.00 B2112,2013-01-23 00:35:00,
2013-01-22 15:39:00,3.5,-0.5,29.78,WNW,286,0.0,0.0,83,0.00,,,0.00,LWC V2.00 B2112,2013-01-23 00:39:00,
2013-01-22 15:44:00,3.1,-0.6,29.78,WNW,286,0.0,0.0,84,0.00,,,0.00,LWC V2.00 B2112,2013-01-23 00:44:00,
2013-01-22 15:49:00,3.2,-0.3,29.78,WNW,286,0.0,0.0,85,0.00,,,0.00,LWC V2.00 B2112,2013-01-23 00:49:00,
2013-01-22 15:54:00,3.1,-0.6,29.79,WNW,286,0.0,0.0,84,0.00,,,0.00,LWC V2.00 B2112,2013-01-23 00:54:00,
2013-01-22 15:59:00,2.8,-0.7,29.78,WNW,286,0.0,0.0,85,0.00,,,0.00,LWC V2.00 B2112,2013-01-23 00:59:00,
2013-01-22 16:05:00,2.8,-0.4,29.78,WNW,286,0.0,0.0,86,0.00,,,0.00,LWC V2.00 B2112,2013-01-23 01:05:00,
2013-01-22 16:09:00,2.8,-0.7,29.78,WNW,286,0.0,0.0,85,0.00,,,0.00,LWC V2.00 B2112,2013-01-23 01:09:00,
2013-01-22 16:14:00,2.9,-0.3,29.78,WNW,286,0.0,0.0,86,0.00,,,0.00,LWC V2.00 B2112,2013-01-23 01:14:00,
2013-01-22 16:19:00,2.9,-0.3,29.78,WNW,286,0.0,0.0,86,0.00,,,0.00,LWC V2.00 B2112,2013-01-23 01:19:00,
2013-01-22 16:24:00,2.6,-0.9,29.78,West,281,0.0,0.0,85,0.00,,,0.00,LWC V2.00 B2112,2013-01-23 01:24:00,
2013-01-22 16:29:00,2.7,-0.5,29.78,WNW,286,0.0,0.0,86,0.00,,,0.00,LWC V2.00 B2112,2013-01-23 01:29:00,
2013-01-22 16:34:00,2.6,-0.9,29.78,WNW,286,0.0,0.0,85,0.00,,,0.00,LWC V2.00 B2112,2013-01-23 01:34:00,
2013-01-22 16:39:00,2.4,-0.8,29.78,WNW,286,0.0,0.0,86,0.00,,,0.00,LWC V2.00 B2112,2013-01-23 01:39:00,
2013-01-22 16:44:00,2.7,-0.3,29.78,WNW,286,0.0,0.0,87,0.00,,,0.00,LWC V2.00 B2112,2013-01-23 01:44:00,
2013-01-22 16:49:00,3.2,0.2,29.77,WNW,286,0.0,0.0,87,0.00,,,0.00,LWC V2.00 B2112,2013-01-23 01:49:00,
2013-01-22 16:54:00,3.8,0.8,29.77,WNW,286,0.0,0.0,87,0.00,,,0.00,LWC V2.00 B2112,2013-01-23 01:54:00,
2013-01-22 16:59:00,3.9,0.7,29.77,WNW,286,0.0,0.0,86,0.00,,,0.00,LWC V2.00 B2112,2013-01-23 01:59:00,
2013-01-22 17:04:00,3.8,0.6,29.77,WNW,286,0.0,0.0,86,0.00,,,0.00,LWC V2.00 B2112,2013-01-23 02:04:00,
2013-01-22 17:09:00,3.8,0.6,29.77,WNW,286,0.0,0.0,86,0.00,,,0.00,LWC V2.00 B2112,2013-01-23 02:09:00,
2013-01-22 17:14:00,3.7,0.2,29.77,WNW,286,0.0,0.0,85,0.00,,,0.00,LWC V2.00 B2112,2013-01-23 02:14:00,
2013-01-22 17:19:00,3.8,0.6,29.77,WNW,286,0.0,0.0,86,0.00,,,0.00,LWC V2.00 B2112,2013-01-23 02:19:00,
2013-01-22 17:24:00,3.7,0.2,29.77,WNW,287,0.0,0.0,85,0.00,,,0.00,LWC V2.00 B2112,2013-01-23 02:24:00,
2013-01-22 17:29:00,3.6,0.1,29.77,WNW,287,0.0,0.0,85,0.00,,,0.00,LWC V2.00 B2112,2013-01-23 02:29:00,
2013-01-22 17:34:00,3.5,0.3,29.77,WNW,287,0.0,0.0,86,0.00,,,0.00,LWC V2.00 B2112,2013-01-23 02:34:00,
2013-01-22 17:39:00,3.4,-0.1,29.77,WNW,286,0.0,0.0,85,0.00,,,0.00,LWC V2.00 B2112,2013-01-23 02:39:00,
2013-01-22 17:44:00,3.7,0.7,29.77,WNW,286,0.0,0.0,87,0.00,,,0.00,LWC V2.00 B2112,2013-01-23 02:44:00,
2013-01-22 17:49:00,4.0,0.8,29.77,WNW,287,0.0,0.0,86,0.00,,,0.00,LWC V2.00 B2112,2013-01-23 02:49:00,
2013-01-22 17:54:00,3.8,0.6,29.77,WNW,287,0.0,0.0,86,0.00,,,0.00,LWC V2.00 B2112,2013-01-23 02:54:00,
2013-01-22 17:59:00,3.7,0.5,29.77,WNW,286,0.0,0.0,86,0.00,,,0.00,LWC V2.00 B2112,2013-01-23 02:59:00,
2013-01-22 18:04:00,3.9,0.9,29.76,WNW,287,0.0,0.0,87,0.00,,,0.00,LWC V2.00 B2112,2013-01-23 03:04:00,
2013-01-22 18:10:00,4.0,0.8,29.77,WNW,287,0.0,0.0,86,0.00,,,0.00,LWC V2.00 B2112,2013-01-23 03:10:00,
2013-01-22 18:14:00,3.5,0.0,29.77,WNW,287,0.0,0.0,85,0.00,,,0.00,LWC V2.00 B2112,2013-01-23 03:14:00,
2013-01-22 18:19:00,3.7,0.7,29.76,WNW,287,0.0,0.0,87,0.00,,,0.00,LWC V2.00 B2112,2013-01-23 03:19:00,
2013-01-22 18:24:00,3.3,-0.2,29.76,WNW,287,0.0,0.0,85,0.00,,,0.00,LWC V2.00 B2112,2013-01-23 03:24:00,
2013-01-22 18:30:00,3.4,0.4,29.76,WNW,287,0.0,0.0,87,0.00,,,0.00,LWC V2.00 B2112,2013-01-23 03:30:00,
2013-01-22 18:34:00,3.4,0.2,29.76,WNW,286,0.0,0.0,86,0.00,,,0.00,LWC V2.00 B2112,2013-01-23 03:34:00,
2013-01-22 18:39:00,3.0,-0.5,29.76,WNW,287,0.0,0.0,85,0.00,,,0.00,LWC V2.00 B2112,2013-01-23 03:39:00,
2013-01-22 18:44:00,2.7,-0.8,29.76,WNW,286,0.0,0.0,85,0.00,,,0.00,LWC V2.00 B2112,2013-01-23 03:44:00,
2013-01-22 18:49:00,2.2,-1.3,29.76,WNW,286,0.0,0.0,85,0.00,,,0.00,LWC V2.00 B2112,2013-01-23 03:49:00,
2013-01-22 18:54:00,2.1,-1.1,29.76,WNW,287,0.0,0.0,86,0.00,,,0.00,LWC V2.00 B2112,2013-01-23 03:54:00,
2013-01-22 18:59:00,1.9,-1.3,29.76,WNW,286,0.0,0.0,86,0.00,,,0.00,LWC V2.00 B2112,2013-01-23 03:59:00,
2013-01-22 19:04:00,2.0,-1.0,29.76,WNW,286,0.0,0.0,87,0.00,,,0.00,LWC V2.00 B2112,2013-01-23 04:04:00,
2013-01-22 19:09:00,2.2,-0.8,29.76,WNW,287,0.0,0.0,87,0.00,,,0.00,LWC V2.00 B2112,2013-01-23 04:09:00,
2013-01-22 19:14:00,2.3,-0.7,29.75,WNW,286,0.0,0.0,87,0.00,,,0.00,LWC V2.00 B2112,2013-01-23 04:14:00,
2013-01-22 19:19:00,2.6,-0.1,29.76,WNW,287,0.0,0.0,88,0.00,,,0.00,LWC V2.00 B2112,2013-01-23 04:19:00,
2013-01-22 19:24:00,2.8,-0.2,29.76,WNW,287,0.0,0.0,87,0.00,,,0.00,LWC V2.00 B2112,2013-01-23 04:24:00,
2013-01-22 19:29:00,2.9,0.2,29.76,WNW,286,0.0,0.0,88,0.00,,,0.00,LWC V2.00 B2112,2013-01-23 04:29:00,
2013-01-22 19:34:00,3.1,0.1,29.76,WNW,286,0.0,0.0,87,0.00,,,0.00,LWC V2.00 B2112,2013-01-23 04:34:00,
2013-01-22 19:39:00,3.0,0.0,29.76,WNW,286,0.0,0.0,87,0.00,,,0.00,LWC V2.00 B2112,2013-01-23 04:39:00,
2013-01-22 19:44:00,2.9,-0.1,29.76,WNW,287,0.0,0.0,87,0.00,,,0.00,LWC V2.00 B2112,2013-01-23 04:44:00,
2013-01-22 19:49:00,2.8,-0.4,29.76,WNW,286,0.0,0.0,86,0.00,,,0.00,LWC V2.00 B2112,2013-01-23 04:49:00,
2013-01-22 19:54:00,2.9,-0.1,29.76,WNW,287,0.0,0.0,87,0.00,,,0.00,LWC V2.00 B2112,2013-01-23 04:54:00,
2013-01-22 19:59:00,2.8,-0.4,29.75,WNW,286,0.0,0.0,86,0.00,,,0.00,LWC V2.00 B2112,2013-01-23 04:59:00,
2013-01-22 20:04:00,2.8,-0.2,29.75,WNW,286,0.0,0.0,87,0.00,,,0.00,LWC V2.00 B2112,2013-01-23 05:04:00,
2013-01-22 20:09:00,2.9,-0.1,29.75,WNW,287,0.0,0.0,87,0.00,,,0.00,LWC V2.00 B2112,2013-01-23 05:09:00,
2013-01-22 20:14:00,2.9,-0.3,29.75,WNW,287,0.0,0.0,86,0.00,,,0.00,LWC V2.00 B2112,2013-01-23 05:14:00,
2013-01-22 20:19:00,2.7,-0.5,29.75,WNW,286,0.0,0.0,86,0.00,,,0.00,LWC V2.00 B2112,2013-01-23 05:19:00,
2013-01-22 20:24:00,2.6,-0.4,29.75,WNW,287,0.0,0.0,87,0.00,,,0.00,LWC V2.00 B2112,2013-01-23 05:24:00,
2013-01-22 20:29:00,2.7,-0.3,29.75,WNW,287,0.0,0.0,87,0.00,,,0.00,LWC V2.00 B2112,2013-01-23 05:29:00,
2013-01-22 20:34:00,2.6,-0.4,29.75,WNW,287,0.0,0.0,87,0.00,,,0.00,LWC V2.00 B2112,2013-01-23 05:34:00,
2013-01-22 20:39:00,2.9,0.2,29.75,WNW,286,0.0,0.0,88,0.00,,,0.00,LWC V2.00 B2112,2013-01-23 05:39:00,
2013-01-22 20:44:00,3.2,0.2,29.74,WNW,286,0.0,0.0,87,0.00,,,0.00,LWC V2.00 B2112,2013-01-23 05:44:00,
2013-01-22 20:49:00,3.3,0.6,29.75,WNW,286,0.0,0.0,88,0.00,,,0.00,LWC V2.00 B2112,2013-01-23 05:49:00,
2013-01-22 20:54:00,3.4,0.4,29.75,WNW,286,0.0,0.0,87,0.00,,,0.00,LWC V2.00 B2112,2013-01-23 05:54:00,
2013-01-22 20:59:00,3.5,0.8,29.74,WNW,286,0.0,0.0,88,0.00,,,0.00,LWC V2.00 B2112,2013-01-23 05:59:00,
2013-01-22 21:04:00,3.6,0.9,29.74,WNW,286,0.0,0.0,88,0.00,,,0.00,LWC V2.00 B2112,2013-01-23 06:04:00,
2013-01-22 21:09:00,4.1,1.4,29.74,WNW,286,0.0,0.0,88,0.00,,,0.00,LWC V2.00 B2112,2013-01-23 06:09:00,
2013-01-22 21:14:00,5.0,2.0,29.73,WNW,286,0.0,0.0,87,0.00,,,0.00,LWC V2.00 B2112,2013-01-23 06:14:00,
2013-01-22 21:19:00,5.5,2.5,29.74,NW,315,0.0,0.0,87,0.00,,,0.00,LWC V2.00 B2112,2013-01-23 06:19:00,
2013-01-22 21:24:00,5.8,2.5,29.74,NW,317,0.0,0.0,86,0.00,,,0.00,LWC V2.00 B2112,2013-01-23 06:24:00,
2013-01-22 21:30:00,5.9,2.4,29.74,NW,317,0.0,0.0,85,0.00,,,0.00,LWC V2.00 B2112,2013-01-23 06:30:00,
2013-01-22 21:34:00,5.9,2.4,29.73,NW,317,0.0,0.0,85,0.00,,,0.00,LWC V2.00 B2112,2013-01-23 06:34:00,
2013-01-22 21:39:00,6.2,2.7,29.73,NW,317,0.0,0.0,85,0.00,,,0.00,LWC V2.00 B2112,2013-01-23 06:39:00,
2013-01-22 21:44:00,6.2,2.4,29.73,NW,316,0.0,0.0,84,0.00,,,0.00,LWC V2.00 B2112,2013-01-23 06:44:00,
2013-01-22 21:49:00,5.9,2.1,29.73,NW,317,0.0,0.0,84,0.00,,,0.00,LWC V2.00 B2112,2013-01-23 06:49:00,
2013-01-22 21:54:00,5.7,1.9,29.73,NW,316,0.0,0.0,84,0.00,,,0.00,LWC V2.00 B2112,2013-01-23 06:54:00,
2013-01-22 21:59:00,5.6,1.8,29.73,NW,316,0.0,0.0,84,0.00,,,0.00,LWC V2.00 B2112,2013-01-23 06:59:00,
2013-01-22 22:04:00,5.4,1.6,29.73,NW,317,0.0,0.0,84,0.00,,,0.00,LWC V2.00 B2112,2013-01-23 07:04:00,
2013-01-22 22:14:00,4.3,0.6,29.73,NW,317,0.0,0.0,84,0.00,,,0.00,LWC V2.00 B2112,2013-01-23 07:14:00,
2013-01-22 22:19:00,3.8,0.1,29.73,NW,317,0.0,0.0,84,0.00,,,0.00,LWC V2.00 B2112,2013-01-23 07:19:00,
2013-01-22 22:24:00,3.6,0.1,29.73,NW,317,0.0,0.0,85,0.00,,,0.00,LWC V2.00 B2112,2013-01-23 07:24:00,
2013-01-22 22:29:00,3.6,0.4,29.73,NW,317,0.0,0.0,86,0.00,,,0.00,LWC V2.00 B2112,2013-01-23 07:29:00,
2013-01-22 22:34:00,3.7,0.5,29.73,NW,317,0.0,0.0,86,0.00,,,0.00,LWC V2.00 B2112,2013-01-23 07:34:00,
2013-01-22 22:39:00,3.8,0.6,29.73,NW,317,0.0,0.0,86,0.00,,,0.00,LWC V2.00 B2112,2013-01-23 07:39:00,
2013-01-22 22:44:00,3.9,0.9,29.73,NW,316,0.0,0.0,87,0.00,,,0.00,LWC V2.00 B2112,2013-01-23 07:44:00,
2013-01-22 22:49:00,3.8,0.6,29.73,NW,317,0.0,0.0,86,0.00,,,0.00,LWC V2.00 B2112,2013-01-23 07:49:00,
2013-01-22 22:54:00,3.7,0.7,29.73,NW,316,0.0,0.0,87,0.00,,,0.00,LWC V2.00 B2112,2013-01-23 07:54:00,
2013-01-22 22:59:00,3.5,0.5,29.73,NW,317,0.0,0.0,87,0.00,,,0.00,LWC V2.00 B2112,2013-01-23 07:59:00,
2013-01-22 23:04:00,3.4,0.2,29.73,NW,316,0.0,0.0,86,0.00,,,0.00,LWC V2.00 B2112,2013-01-23 08:04:00,
2013-01-22 23:09:00,3.5,0.5,29.72,NW,317,0.0,0.0,87,0.00,,,0.00,LWC V2.00 B2112,2013-01-23 08:09:00,
2013-01-22 23:14:00,3.4,0.2,29.72,NW,316,0.0,0.0,86,0.00,,,0.00,LWC V2.00 B2112,2013-01-23 08:14:00,
2013-01-22 23:19:00,3.5,0.5,29.72,NW,316,0.0,0.0,87,0.00,,,0.00,LWC V2.00 B2112,2013-01-23 08:19:00,
2013-01-22 23:24:00,3.5,0.5,29.72,NW,317,0.0,0.0,87,0.00,,,0.00,LWC V2.00 B2112,2013-01-23 08:24:00,
2013-01-22 23:29:00,3.5,0.5,29.72,NW,317,0.0,0.0,87,0.00,,,0.00,LWC V2.00 B2112,2013-01-23 08:29:00,
2013-01-22 23:34:00,3.5,0.3,29.72,NW,317,0.0,0.0,86,0.00,,,0.00,LWC V2.00 B2112,2013-01-23 08:34:00,
2013-01-22 23:39:00,3.6,0.6,29.72,NW,317,0.0,0.0,87,0.00,,,0.00,LWC V2.00 B2112,2013-01-23 08:39:00,
2013-01-22 23:44:00,3.6,0.6,29.72,NW,317,0.0,0.0,87,0.00,,,0.00,LWC V2.00 B2112,2013-01-23 08:44:00,
2013-01-22 23:49:00,3.6,0.6,29.72,NW,317,0.0,0.0,87,0.00,,,0.00,LWC V2.00 B2112,2013-01-23 08:49:00,
2013-01-22 23:54:00,3.7,0.7,29.72,NW,316,0.0,0.0,87,0.00,,,0.00,LWC V2.00 B2112,2013-01-23 08:54:00,
2013-01-22 23:59:00,4.1,1.1,29.71,NE,38,0.0,0.0,87,0.00,,,0.00,LWC V2.00 B2112,2013-01-23 08:59:00,